createdAt,value
2023-03-17T00:01:17.389Z,21.13
2023-03-17T00:04:05.924Z,22.10
2023-03-17T00:06:55.124Z,19.43
2023-03-17T00:09:43.488Z,20.30
2023-03-17T00:12:34.269Z,21.20
2023-03-17T00:15:23.347Z,20.23
2023-03-17T00:18:13.303Z,20.90
2023-03-17T00:21:02.109Z,20.33
2023-03-17T00:23:51.820Z,24.73
2023-03-17T00:26:41.040Z,22.70
2023-03-17T00:29:30.767Z,20.20
2023-03-17T00:32:20.285Z,26.90
2023-03-17T00:35:18.709Z,22.83
2023-03-17T00:38:08.120Z,21.53
2023-03-17T00:40:56.429Z,20.97
2023-03-17T00:43:44.894Z,21.40
2023-03-17T00:46:37.975Z,21.13
2023-03-17T00:49:26.813Z,22.10
2023-03-17T00:52:15.448Z,21.47
2023-03-17T00:55:03.843Z,22.70
2023-03-17T00:57:52.171Z,21.50
2023-03-17T01:00:40.907Z,22.20
2023-03-17T01:03:33.082Z,21.80
2023-03-17T01:06:21.582Z,22.43
2023-03-17T01:09:13.319Z,22.93
2023-03-17T01:12:01.676Z,22.70
2023-03-17T01:14:50.096Z,23.30
2023-03-17T01:17:39.506Z,21.83
2023-03-17T01:20:31.507Z,24.93
2023-03-17T01:23:20.527Z,23.37
2023-03-17T01:26:09.596Z,22.07
2023-03-17T01:28:58.979Z,23.80
2023-03-17T01:31:47.761Z,24.60
2023-03-17T01:34:36.172Z,23.50
2023-03-17T01:37:27.034Z,24.73
2023-03-17T01:40:18.286Z,24.33
2023-03-17T01:43:20.049Z,23.83
2023-03-17T01:46:23.127Z,25.23
2023-03-17T01:49:17.084Z,25.60
2023-03-17T01:52:09.250Z,28.10
2023-03-17T01:55:03.741Z,25.00
2023-03-17T01:57:54.776Z,24.63
2023-03-17T02:00:44.019Z,24.80
2023-03-17T02:03:33.186Z,25.73
2023-03-17T02:06:22.202Z,26.00
2023-03-17T02:09:10.967Z,25.03
2023-03-17T02:12:02.119Z,24.13
2023-03-17T02:14:51.566Z,24.93
2023-03-17T02:17:39.936Z,26.10
2023-03-17T02:21:11.069Z,24.90
2023-03-17T02:24:02.269Z,25.73
2023-03-17T02:26:50.927Z,24.97
2023-03-17T02:29:39.675Z,24.20
2023-03-17T02:32:30.163Z,27.67
2023-03-17T02:35:19.095Z,25.00
2023-03-17T02:38:07.669Z,24.87
2023-03-17T02:40:57.440Z,26.73
2023-03-17T02:43:46.442Z,26.17
2023-03-17T02:46:34.759Z,25.83
2023-03-17T02:49:23.630Z,26.30
2023-03-17T02:52:12.111Z,26.00
2023-03-17T02:55:00.611Z,25.40
2023-03-17T02:57:50.265Z,25.63
2023-03-17T03:00:39.320Z,26.10
2023-03-17T03:03:27.720Z,25.23
2023-03-17T03:06:16.444Z,25.83
2023-03-17T03:09:05.687Z,25.70
2023-03-17T03:11:54.520Z,25.47
2023-03-17T03:14:44.227Z,26.30
2023-03-17T03:17:32.594Z,26.23
2023-03-17T03:20:21.240Z,31.17
2023-03-17T03:23:09.622Z,26.40
2023-03-17T03:25:58.018Z,26.50
2023-03-17T03:28:46.372Z,25.70
2023-03-17T03:31:36.057Z,27.13
2023-03-17T03:34:24.473Z,26.97
2023-03-17T03:37:12.906Z,26.93
2023-03-17T03:40:01.442Z,26.37
2023-03-17T03:42:49.845Z,25.60
2023-03-17T03:45:38.110Z,27.10
2023-03-17T03:48:27.902Z,25.40
2023-03-17T03:51:16.177Z,26.43
2023-03-17T03:54:04.736Z,26.97
2023-03-17T03:56:53.008Z,27.80
2023-03-17T03:59:41.321Z,26.00
2023-03-17T04:02:29.830Z,26.97
2023-03-17T04:05:20.419Z,26.50
2023-03-17T04:08:09.091Z,26.33
2023-03-17T04:10:57.638Z,26.43
2023-03-17T04:13:45.980Z,27.00
2023-03-17T04:16:34.505Z,26.87
2023-03-17T04:19:23.554Z,26.80
2023-03-17T04:22:13.843Z,26.73
2023-03-17T04:25:02.221Z,28.83
2023-03-17T04:27:50.990Z,26.50
2023-03-17T04:30:39.341Z,27.27
2023-03-17T04:33:27.731Z,26.30
2023-03-17T04:36:20.417Z,26.90
2023-03-17T04:39:10.829Z,26.40
2023-03-17T04:41:59.382Z,27.60
2023-03-17T04:44:47.740Z,28.50
2023-03-17T04:47:36.688Z,26.70
2023-03-17T04:50:25.168Z,29.43
2023-03-17T04:53:13.523Z,26.53
2023-03-17T04:56:03.278Z,26.60
2023-03-17T04:58:51.624Z,26.70
2023-03-17T05:01:40.185Z,26.53
2023-03-17T05:04:32.054Z,27.77
2023-03-17T05:07:20.927Z,26.90
2023-03-17T05:10:12.371Z,27.40
2023-03-17T05:13:02.649Z,32.47
2023-03-17T05:15:51.901Z,26.33
2023-03-17T05:18:41.797Z,27.30
2023-03-17T05:21:30.150Z,27.57
2023-03-17T05:24:18.598Z,27.43
2023-03-17T05:27:07.132Z,29.17
2023-03-17T05:29:56.902Z,27.00
2023-03-17T05:32:45.658Z,26.37
2023-03-17T05:35:34.242Z,27.40
2023-03-17T05:38:22.635Z,26.93
2023-03-17T05:41:12.288Z,28.83
2023-03-17T05:44:00.928Z,27.23
2023-03-17T05:46:51.248Z,27.20
2023-03-17T05:49:39.698Z,26.77
2023-03-17T05:52:28.357Z,28.33
2023-03-17T05:55:17.571Z,26.90
2023-03-17T05:58:06.663Z,27.50
2023-03-17T06:00:55.315Z,29.17
2023-03-17T06:03:45.199Z,32.43
2023-03-17T06:06:33.964Z,28.40
2023-03-17T06:09:22.381Z,26.47
2023-03-17T06:12:11.415Z,34.90
2023-03-17T06:14:59.830Z,29.13
2023-03-17T06:17:48.402Z,28.10
2023-03-17T06:20:38.205Z,27.07
2023-03-17T06:23:26.581Z,30.30
2023-03-17T06:26:15.067Z,27.33
2023-03-17T06:29:03.516Z,26.70
2023-03-17T06:31:52.401Z,26.33
2023-03-17T06:34:41.910Z,27.20
2023-03-17T06:37:31.783Z,26.17
2023-03-17T06:40:20.258Z,27.07
2023-03-17T06:43:09.939Z,25.50
2023-03-17T06:45:58.268Z,26.83
2023-03-17T06:48:46.637Z,25.20
2023-03-17T06:51:37.225Z,26.13
2023-03-17T06:54:27.284Z,26.23
2023-03-17T06:57:15.911Z,26.87
2023-03-17T07:00:06.369Z,25.30
2023-03-17T07:02:54.805Z,27.23
2023-03-17T07:05:43.615Z,26.50
2023-03-17T07:08:32.040Z,26.00
2023-03-17T07:11:23.616Z,25.23
2023-03-17T07:14:12.183Z,25.40
2023-03-17T07:17:00.911Z,25.13
2023-03-17T07:19:49.635Z,25.37
2023-03-17T07:22:38.059Z,25.10
2023-03-17T07:25:26.512Z,26.93
2023-03-17T07:28:16.869Z,23.93
2023-03-17T07:31:07.883Z,25.53
2023-03-17T07:33:57.478Z,24.73
2023-03-17T07:36:46.086Z,24.30
2023-03-17T07:39:34.820Z,23.80
2023-03-17T07:42:23.233Z,23.73
2023-03-17T07:45:13.396Z,23.80
2023-03-17T07:48:01.779Z,23.60
2023-03-17T07:50:50.833Z,23.83
2023-03-17T07:53:39.186Z,22.80
2023-03-17T07:56:27.595Z,30.57
2023-03-17T07:59:16.095Z,27.83
2023-03-17T08:02:06.758Z,22.13
2023-03-17T08:04:55.221Z,21.90
2023-03-17T08:07:43.867Z,20.83
2023-03-17T08:10:33.913Z,28.03
2023-03-17T08:13:22.511Z,20.80
2023-03-17T08:16:11.069Z,19.33
2023-03-17T08:19:01.050Z,20.20
2023-03-17T08:21:49.634Z,20.03
2023-03-17T08:24:39.712Z,20.77
2023-03-17T08:27:28.158Z,18.33
2023-03-17T08:30:17.275Z,17.37
2023-03-17T08:33:06.112Z,19.07
2023-03-17T08:35:57.951Z,19.73
2023-03-17T08:38:47.213Z,16.73
2023-03-17T08:41:36.956Z,17.70
2023-03-17T08:44:25.379Z,16.00
2023-03-17T08:47:13.840Z,16.63
2023-03-17T08:50:02.300Z,16.40
2023-03-17T08:52:54.329Z,15.23
2023-03-17T08:55:42.726Z,15.10
2023-03-17T08:58:31.309Z,16.43
2023-03-17T09:01:21.035Z,15.83
2023-03-17T09:04:09.815Z,14.23
2023-03-17T09:07:03.854Z,14.87
2023-03-17T09:09:54.032Z,15.27
2023-03-17T09:12:42.807Z,15.00
2023-03-17T09:15:32.246Z,15.60
2023-03-17T09:18:22.184Z,16.50
2023-03-17T09:21:11.778Z,15.30
2023-03-17T09:24:02.452Z,15.30
2023-03-17T09:26:52.441Z,15.37
2023-03-17T09:29:41.237Z,15.30
2023-03-17T09:32:29.604Z,16.73
2023-03-17T09:35:18.008Z,15.23
2023-03-17T09:38:06.974Z,15.70
2023-03-17T09:40:59.048Z,15.70
2023-03-17T09:43:53.334Z,16.00
2023-03-17T09:46:47.419Z,17.13
2023-03-17T09:49:39.498Z,16.90
2023-03-17T09:52:29.762Z,16.60
2023-03-17T09:55:23.984Z,17.17
2023-03-17T09:58:12.990Z,16.40
2023-03-17T10:01:05.174Z,17.13
2023-03-17T10:03:53.645Z,20.50
2023-03-17T10:06:44.171Z,17.80
2023-03-17T10:09:37.117Z,17.33
2023-03-17T10:12:32.885Z,19.80
2023-03-17T10:15:25.328Z,16.97
2023-03-17T10:18:16.716Z,18.10
2023-03-17T10:21:07.936Z,18.50
2023-03-17T10:23:57.521Z,17.77
2023-03-17T10:26:48.442Z,17.53
2023-03-17T10:29:37.094Z,17.63
2023-03-17T10:32:25.716Z,17.30
2023-03-17T10:35:16.183Z,19.50
2023-03-17T10:38:16.250Z,17.80
2023-03-17T10:41:09.871Z,18.00
2023-03-17T10:43:59.390Z,18.13
2023-03-17T10:46:54.429Z,17.90
2023-03-17T10:49:46.129Z,16.83
2023-03-17T10:52:39.635Z,16.60
2023-03-17T10:55:30.921Z,16.27
2023-03-17T10:58:21.790Z,16.77
2023-03-17T11:01:20.075Z,16.47
2023-03-17T11:04:30.304Z,16.73
2023-03-17T11:07:20.293Z,16.97
2023-03-17T11:10:20.374Z,16.20
2023-03-17T11:13:09.505Z,16.60
2023-03-17T11:16:08.622Z,16.40
2023-03-17T11:18:59.804Z,16.53
2023-03-17T11:21:55.684Z,16.40
2023-03-17T11:24:53.799Z,16.20
2023-03-17T11:27:47.106Z,18.00
2023-03-17T11:30:36.911Z,15.47
2023-03-17T11:33:36.346Z,15.63
2023-03-17T11:36:37.303Z,16.33
2023-03-17T11:39:28.305Z,15.53
2023-03-17T11:42:23.341Z,16.90
2023-03-17T11:45:19.077Z,16.23
2023-03-17T11:48:15.552Z,15.90
2023-03-17T11:51:08.328Z,15.57
2023-03-17T11:54:04.636Z,14.77
2023-03-17T11:56:55.748Z,15.60
2023-03-17T11:59:52.053Z,15.50
2023-03-17T12:02:45.826Z,15.80
2023-03-17T12:05:35.868Z,16.70
2023-03-17T12:08:30.531Z,15.20
2023-03-17T12:11:23.204Z,14.63
2023-03-17T12:14:24.079Z,14.77
2023-03-17T12:17:18.530Z,16.10
2023-03-17T12:20:16.430Z,14.30
2023-03-17T12:23:10.478Z,14.63
2023-03-17T12:26:01.663Z,14.77
2023-03-17T12:28:52.922Z,14.60
2023-03-17T12:31:45.766Z,14.90
2023-03-17T12:34:40.474Z,15.10
2023-03-17T12:37:31.122Z,14.00
2023-03-17T12:40:21.376Z,13.73
2023-03-17T12:43:27.820Z,14.30
2023-03-17T12:46:42.134Z,14.97
2023-03-17T12:49:45.185Z,14.80
2023-03-17T12:52:43.966Z,14.13
2023-03-17T12:55:33.880Z,13.50
2023-03-17T12:58:29.479Z,13.10
2023-03-17T13:01:26.448Z,13.37
2023-03-17T13:04:18.728Z,14.50
2023-03-17T13:07:12.508Z,13.13
2023-03-17T13:10:22.240Z,17.07
2023-03-17T13:13:23.288Z,13.70
2023-03-17T13:16:28.022Z,13.30
2023-03-17T13:19:20.187Z,16.27
2023-03-17T13:22:36.435Z,12.70
2023-03-17T13:25:33.441Z,13.00
2023-03-17T13:28:27.076Z,13.80
2023-03-17T13:31:31.761Z,12.63
2023-03-17T13:34:21.628Z,14.60
2023-03-17T13:37:19.368Z,14.60
2023-03-17T13:40:15.677Z,13.87
2023-03-17T13:43:15.045Z,13.20
2023-03-17T13:46:25.507Z,11.67
2023-03-17T13:49:26.582Z,12.50
2023-03-17T13:52:17.548Z,12.77
2023-03-17T13:55:37.928Z,12.03
2023-03-17T13:58:27.476Z,12.77
2023-03-17T14:01:16.461Z,11.83
2023-03-17T14:04:10.649Z,15.43
2023-03-17T14:07:01.058Z,12.20
2023-03-17T14:09:53.353Z,13.10
2023-03-17T14:12:46.410Z,11.87
2023-03-17T14:15:42.023Z,13.00
2023-03-17T14:18:32.387Z,11.80
2023-03-17T14:21:23.490Z,11.67
2023-03-17T14:24:23.490Z,12.23
2023-03-17T14:27:15.128Z,11.37
2023-03-17T14:30:10.795Z,12.23
2023-03-17T14:33:03.099Z,11.80
2023-03-17T14:35:53.903Z,12.90
2023-03-17T14:38:49.009Z,11.70
2023-03-17T14:41:37.685Z,11.20
2023-03-17T14:44:26.052Z,11.10
2023-03-17T14:47:20.499Z,12.60
2023-03-17T14:50:16.843Z,11.20
2023-03-17T14:53:05.349Z,10.93
2023-03-17T14:55:54.308Z,11.43
2023-03-17T14:58:44.809Z,11.50
2023-03-17T15:01:36.348Z,11.77
2023-03-17T15:04:28.021Z,12.00
2023-03-17T15:07:30.394Z,11.80
2023-03-17T15:10:20.501Z,14.10
2023-03-17T15:13:12.028Z,17.07
2023-03-17T15:16:03.956Z,12.70
2023-03-17T15:18:58.655Z,12.03
2023-03-17T15:21:48.646Z,10.67
2023-03-17T15:24:40.009Z,10.50
2023-03-17T15:27:29.041Z,11.43
2023-03-17T15:30:18.616Z,12.50
2023-03-17T15:33:18.995Z,11.43
2023-03-17T15:36:07.713Z,11.73
2023-03-17T15:38:57.493Z,11.47
2023-03-17T15:41:45.967Z,11.23
2023-03-17T15:44:34.335Z,11.50
2023-03-17T15:47:25.576Z,12.93
2023-03-17T15:50:17.909Z,11.20
2023-03-17T15:53:06.248Z,14.93
2023-03-17T15:55:56.414Z,12.00
2023-03-17T15:58:44.742Z,15.13
2023-03-17T16:01:33.161Z,11.17
2023-03-17T16:04:21.660Z,12.37
2023-03-17T16:07:12.963Z,11.70
2023-03-17T16:10:01.358Z,11.77
2023-03-17T16:12:51.780Z,11.27
2023-03-17T16:15:42.089Z,12.47
2023-03-17T16:18:34.000Z,11.27
2023-03-17T16:21:22.901Z,12.33
2023-03-17T16:24:18.561Z,13.23
2023-03-17T16:27:15.009Z,18.57
2023-03-17T16:30:06.062Z,18.40
2023-03-17T16:32:56.429Z,17.07
2023-03-17T16:35:45.309Z,18.47
2023-03-17T16:38:34.988Z,15.30
2023-03-17T16:41:25.188Z,15.80
2023-03-17T16:44:13.937Z,12.50
2023-03-17T16:47:04.042Z,13.20
2023-03-17T16:49:52.584Z,12.40
2023-03-17T16:52:40.955Z,11.40
2023-03-17T16:55:30.185Z,11.97
2023-03-17T16:58:20.703Z,13.20
2023-03-17T17:01:13.968Z,12.90
2023-03-17T17:04:03.855Z,14.33
2023-03-17T17:06:52.578Z,14.07
2023-03-17T17:09:41.294Z,15.00
2023-03-17T17:12:29.776Z,13.30
2023-03-17T17:15:19.613Z,12.13
2023-03-17T17:18:12.363Z,12.73
2023-03-17T17:21:03.849Z,12.73
2023-03-17T17:23:53.138Z,14.57
2023-03-17T17:26:41.760Z,13.60
2023-03-17T17:29:32.355Z,11.93
2023-03-17T17:32:23.614Z,13.33
2023-03-17T17:35:12.507Z,15.17
2023-03-17T17:38:02.489Z,14.63
2023-03-17T17:40:51.354Z,14.27
2023-03-17T17:43:39.966Z,13.63
2023-03-17T17:46:28.463Z,14.73
2023-03-17T17:49:16.866Z,14.53
2023-03-17T17:52:05.857Z,13.87
2023-03-17T17:54:55.617Z,13.67
2023-03-17T17:57:44.230Z,13.43
2023-03-17T18:00:33.401Z,15.83
2023-03-17T18:03:25.162Z,15.90
2023-03-17T18:06:14.043Z,17.43
2023-03-17T18:09:02.594Z,14.10
2023-03-17T18:11:52.387Z,14.53
2023-03-17T18:14:41.054Z,15.57
2023-03-17T18:17:31.997Z,16.57
2023-03-17T18:20:22.490Z,22.10
2023-03-17T18:23:11.300Z,21.13
2023-03-17T18:26:00.877Z,20.53
2023-03-17T18:28:51.557Z,22.40
2023-03-17T18:31:42.791Z,21.53
2023-03-17T18:34:36.872Z,21.43
2023-03-17T18:37:25.333Z,18.20
2023-03-17T18:40:18.087Z,17.83
2023-03-17T18:43:07.281Z,18.47
2023-03-17T18:45:57.143Z,17.20
2023-03-17T18:48:45.563Z,21.77
2023-03-17T18:51:33.994Z,21.77
2023-03-17T18:54:22.757Z,21.20
2023-03-17T18:57:11.134Z,18.83
2023-03-17T18:59:59.587Z,17.80
2023-03-17T19:02:49.325Z,17.30
2023-03-17T19:05:39.471Z,20.07
2023-03-17T19:08:27.870Z,18.60
2023-03-17T19:11:18.987Z,17.33
2023-03-17T19:14:08.407Z,17.17
2023-03-17T19:16:56.879Z,17.07
2023-03-17T19:19:46.791Z,19.53
2023-03-17T19:22:35.800Z,20.20
2023-03-17T19:25:24.547Z,17.10
2023-03-17T19:28:12.941Z,17.60
2023-03-17T19:31:01.772Z,18.40
2023-03-17T19:33:50.172Z,18.13
2023-03-17T19:36:41.659Z,16.60
2023-03-17T19:39:31.338Z,18.63
2023-03-17T19:42:19.850Z,16.97
2023-03-17T19:45:09.418Z,17.63
2023-03-17T19:47:59.929Z,17.47
2023-03-17T19:50:48.299Z,17.57
2023-03-17T19:53:38.424Z,17.87
2023-03-17T19:56:28.973Z,19.03
2023-03-17T19:59:19.118Z,17.87
2023-03-17T20:02:08.185Z,19.47
2023-03-17T20:04:56.813Z,17.27
2023-03-17T20:07:46.494Z,17.83
2023-03-17T20:10:36.397Z,17.23
2023-03-17T20:13:24.883Z,17.87
2023-03-17T20:16:14.388Z,18.47
2023-03-17T20:19:03.550Z,19.63
2023-03-17T20:21:52.526Z,18.63
2023-03-17T20:24:40.903Z,17.70
2023-03-17T20:27:32.168Z,17.20
2023-03-17T20:30:20.938Z,17.90
2023-03-17T20:33:10.903Z,18.27
2023-03-17T20:35:59.399Z,17.47
2023-03-17T20:38:47.921Z,19.43
2023-03-17T20:41:37.065Z,19.07
2023-03-17T20:44:26.818Z,17.90
2023-03-17T20:47:15.164Z,18.33
2023-03-17T20:50:04.600Z,19.00
2023-03-17T20:52:53.103Z,18.23
2023-03-17T20:55:43.241Z,17.77
2023-03-17T20:58:31.681Z,19.03
2023-03-17T21:01:23.322Z,18.23
2023-03-17T21:04:15.698Z,18.70
2023-03-17T21:07:04.763Z,20.27
2023-03-17T21:09:56.459Z,18.77
2023-03-17T21:12:45.019Z,18.80
2023-03-17T21:15:33.609Z,20.10
2023-03-17T21:18:23.824Z,20.10
2023-03-17T21:21:12.233Z,18.70
2023-03-17T21:24:02.131Z,19.27
2023-03-17T21:26:50.683Z,19.50
2023-03-17T21:29:40.103Z,19.17
2023-03-17T21:32:28.572Z,18.47
2023-03-17T21:35:18.471Z,18.63
2023-03-17T21:38:06.859Z,18.93
2023-03-17T21:40:55.371Z,18.57
2023-03-17T21:43:44.081Z,18.93
2023-03-17T21:46:33.602Z,18.70
2023-03-17T21:49:23.111Z,19.90
2023-03-17T21:52:14.894Z,18.80
2023-03-17T21:55:03.319Z,18.43
2023-03-17T21:57:51.723Z,19.30
2023-03-17T22:00:45.522Z,21.90
2023-03-17T22:03:34.549Z,18.90
2023-03-17T22:06:24.850Z,18.20
2023-03-17T22:09:16.108Z,19.43
2023-03-17T22:12:06.982Z,21.40
2023-03-17T22:14:58.292Z,20.20
2023-03-17T22:17:47.176Z,18.23
2023-03-17T22:20:35.804Z,18.50
2023-03-17T22:23:25.619Z,21.67
2023-03-17T22:26:18.293Z,19.10
2023-03-17T22:29:06.692Z,18.30
2023-03-17T22:31:55.051Z,18.97
2023-03-17T22:34:43.718Z,18.87
2023-03-17T22:37:32.209Z,20.03
2023-03-17T22:40:20.778Z,18.20
2023-03-17T22:43:11.154Z,18.37
2023-03-17T22:45:59.593Z,19.03
2023-03-17T22:48:48.308Z,19.10
2023-03-17T22:51:37.223Z,19.53
2023-03-17T22:54:25.649Z,19.00
2023-03-17T22:57:14.053Z,17.27
2023-03-17T23:00:06.151Z,19.57
2023-03-17T23:02:54.509Z,18.60
2023-03-17T23:05:46.248Z,17.93
2023-03-17T23:08:37.470Z,17.53
2023-03-17T23:11:28.062Z,17.67
2023-03-17T23:14:16.463Z,17.70
2023-03-17T23:17:07.524Z,19.20
2023-03-17T23:19:56.047Z,17.80
2023-03-17T23:22:44.553Z,21.20
2023-03-17T23:25:33.075Z,16.90
2023-03-17T23:28:21.807Z,18.03
2023-03-17T23:31:11.129Z,21.30
2023-03-17T23:34:01.781Z,17.87
2023-03-17T23:36:50.651Z,18.07
2023-03-17T23:39:40.366Z,18.20
2023-03-17T23:42:29.173Z,17.20
2023-03-17T23:45:18.464Z,17.07
2023-03-17T23:48:07.642Z,17.20
2023-03-17T23:50:57.567Z,16.83
2023-03-17T23:53:46.441Z,17.50
2023-03-17T23:56:34.870Z,18.57
2023-03-17T23:59:23.309Z,17.37
